KLUK/LUK METAR and TAF weather

Enter ICAO airport designator
Station Type Date Time Source
KLUK METAR 2019/05/27 08:53 UTC NOAA

KLUK 270853Z AUTO 00000KT M1/4SM R21L/0500V0800FT FG VV001 18/18 A3005 RMK AO2 SLP171 T01780178 53001


Station Type Date Time Source
KLUK Decoded METAR 2019/05/27 08:53 UTC NOAA

CINCINNATI MUN LUNKEN FLD, OH, United States (KLUK) 39-06N 84-25W 155M
May 27, 2019 - 04:53 AM EDT / 2019.05.27 0853 UTC
Wind: Calm (direction variable):0
Visibility: less than 1/4 mile(s):1
Sky conditions: obscured
Weather: fog
Temperature: 64.0 F (17.8 C)
Dew Point: 64.0 F (17.8 C)
Relative Humidity: 100%
Pressure (altimeter): 30.05 in. Hg (1017 hPa)
Pressure tendency: 0.00 inches (0.1 hPa) higher than three hours ago
ob: KLUK 270853Z AUTO 00000KT M1/4SM R21L/0500V0800FT FG VV001 18/18 A3005 RMK AO2 SLP171 T01780178 53001
cycle: 9

Station Type Date Time Source
KLUK TAF 2019/05/27 06:39 UTC NOAA

TAF KLUK 270537Z 2706/2806 00000KT 1/4SM FG VV002
FM271300 00000KT 4SM BR SCT200
FM271400 VRB03KT P6SM SCT200
FM271600 18005KT P6SM SCT030
FM271900 21006KT P6SM VCSH SCT040 SCT150
FM280000 21007KT P6SM SCT250

Example: see airport list